sensor_id;sensor_type;location;lat;lon;timestamp;pressure;altitude;pressure_sealevel;temperature;humidity
32642;BME280;19323;56.072;9.698;2023-04-01T00:01:00;99396.66;;;26.05;38.92
32642;BME280;19323;56.072;9.698;2023-04-01T00:03:27;99402.03;;;26.05;38.72
32642;BME280;19323;56.072;9.698;2023-04-01T00:05:55;99396.84;;;26.04;38.76
32642;BME280;19323;56.072;9.698;2023-04-01T00:08:21;99397.69;;;26.04;38.78
32642;BME280;19323;56.072;9.698;2023-04-01T00:10:46;99398.69;;;26.03;38.59
32642;BME280;19323;56.072;9.698;2023-04-01T00:13:11;99400.56;;;26.03;38.53
32642;BME280;19323;56.072;9.698;2023-04-01T00:15:37;99396.16;;;25.95;38.79
32642;BME280;19323;56.072;9.698;2023-04-01T00:18:02;99406.09;;;26.01;38.33
32642;BME280;19323;56.072;9.698;2023-04-01T00:20:28;99413.34;;;26.01;38.62
32642;BME280;19323;56.072;9.698;2023-04-01T00:22:53;99412.50;;;26.00;38.75
32642;BME280;19323;56.072;9.698;2023-04-01T00:25:18;99414.97;;;26.02;38.18
32642;BME280;19323;56.072;9.698;2023-04-01T00:27:44;99416.84;;;26.01;38.51
32642;BME280;19323;56.072;9.698;2023-04-01T00:30:09;99414.16;;;26.01;38.25
32642;BME280;19323;56.072;9.698;2023-04-01T00:32:34;99423.44;;;25.99;38.63
32642;BME280;19323;56.072;9.698;2023-04-01T00:35:00;99427.97;;;25.98;38.55
32642;BME280;19323;56.072;9.698;2023-04-01T00:37:26;99422.78;;;25.97;38.58
32642;BME280;19323;56.072;9.698;2023-04-01T00:39:52;99421.97;;;25.96;38.48
32642;BME280;19323;56.072;9.698;2023-04-01T00:42:17;99431.88;;;25.96;38.42
32642;BME280;19323;56.072;9.698;2023-04-01T00:44:42;99426.69;;;25.94;38.33
32642;BME280;19323;56.072;9.698;2023-04-01T00:47:09;99433.53;;;25.97;38.10
32642;BME280;19323;56.072;9.698;2023-04-01T00:49:36;99432.69;;;25.96;38.10
32642;BME280;19323;56.072;9.698;2023-04-01T00:52:03;99435.56;;;25.95;38.31
32642;BME280;19323;56.072;9.698;2023-04-01T00:54:30;99441.97;;;25.94;38.23
32642;BME280;19323;56.072;9.698;2023-04-01T00:56:59;99437.59;;;25.93;38.03
32642;BME280;19323;56.072;9.698;2023-04-01T00:59:26;99414.94;;;25.74;37.89
32642;BME280;19323;56.072;9.698;2023-04-01T01:01:53;99440.28;;;25.93;38.09
32642;BME280;19323;56.072;9.698;2023-04-01T01:04:22;99443.19;;;25.91;38.00
32642;BME280;19323;56.072;9.698;2023-04-01T01:09:41;99451.25;;;25.91;37.87
32642;BME280;19323;56.072;9.698;2023-04-01T01:12:19;99453.28;;;25.89;37.81
32642;BME280;19323;56.072;9.698;2023-04-01T01:17:24;99459.81;;;25.86;38.25
32642;BME280;19323;56.072;9.698;2023-04-01T01:24:54;99459.16;;;25.84;38.24
32642;BME280;19323;56.072;9.698;2023-04-01T01:27:23;99467.03;;;25.86;37.99
32642;BME280;19323;56.072;9.698;2023-04-01T01:37:31;99475.91;;;25.86;38.06
32642;BME280;19323;56.072;9.698;2023-04-01T01:40:02;99483.13;;;25.86;37.94
32642;BME280;19323;56.072;9.698;2023-04-01T01:42:28;99481.25;;;25.86;37.89
32642;BME280;19323;56.072;9.698;2023-04-01T01:44:55;99490.34;;;25.85;37.82
32642;BME280;19323;56.072;9.698;2023-04-01T01:47:22;99491.34;;;25.84;37.80
32642;BME280;19323;56.072;9.698;2023-04-01T01:49:48;99487.84;;;25.84;37.63
32642;BME280;19323;56.072;9.698;2023-04-01T01:52:16;99498.56;;;25.84;38.05
32642;BME280;19323;56.072;9.698;2023-04-01T01:54:51;99498.56;;;25.84;37.99
32642;BME280;19323;56.072;9.698;2023-04-01T01:57:17;99500.44;;;25.83;37.94
32642;BME280;19323;56.072;9.698;2023-04-01T01:59:44;99502.47;;;25.81;37.85
32642;BME280;19323;56.072;9.698;2023-04-01T02:02:11;99505.34;;;25.80;37.91
32642;BME280;19323;56.072;9.698;2023-04-01T02:04:38;99502.66;;;25.80;37.97
32642;BME280;19323;56.072;9.698;2023-04-01T02:07:05;99507.00;;;25.81;37.88
32642;BME280;19323;56.072;9.698;2023-04-01T02:09:32;99513.38;;;25.80;37.81
32642;BME280;19323;56.072;9.698;2023-04-01T02:11:59;99519.59;;;25.80;37.50
32642;BME280;19323;56.072;9.698;2023-04-01T02:14:26;99521.44;;;25.80;37.65
32642;BME280;19323;56.072;9.698;2023-04-01T02:17:00;99524.09;;;25.80;37.68
32642;BME280;19323;56.072;9.698;2023-04-01T02:19:32;99527.66;;;25.80;38.00
32642;BME280;19323;56.072;9.698;2023-04-01T02:21:59;99531.97;;;25.81;37.76
32642;BME280;19323;56.072;9.698;2023-04-01T02:24:26;99531.97;;;25.81;37.93
32642;BME280;19323;56.072;9.698;2023-04-01T02:26:52;99535.69;;;25.80;37.70
32642;BME280;19323;56.072;9.698;2023-04-01T02:29:18;99532.16;;;25.80;37.68
32642;BME280;19323;56.072;9.698;2023-04-01T02:31:44;99531.34;;;25.79;37.54
32642;BME280;19323;56.072;9.698;2023-04-01T02:34:10;99541.25;;;25.79;37.65
32642;BME280;19323;56.072;9.698;2023-04-01T02:36:35;99545.78;;;25.78;37.84
32642;BME280;19323;56.072;9.698;2023-04-01T02:39:01;99550.28;;;25.78;37.78
32642;BME280;19323;56.072;9.698;2023-04-01T02:41:28;99551.97;;;25.79;37.73
32642;BME280;19323;56.072;9.698;2023-04-01T02:43:53;99560.00;;;25.79;37.61
32642;BME280;19323;56.072;9.698;2023-04-01T02:46:18;99563.69;;;25.78;37.48
32642;BME280;19323;56.072;9.698;2023-04-01T02:48:43;99562.06;;;25.77;37.63
32642;BME280;19323;56.072;9.698;2023-04-01T02:51:08;99568.41;;;25.76;37.56
32642;BME280;19323;56.072;9.698;2023-04-01T02:53:33;99569.28;;;25.76;37.61
32642;BME280;19323;56.072;9.698;2023-04-01T02:55:58;99572.78;;;25.77;37.69
32642;BME280;19323;56.072;9.698;2023-04-01T02:58:24;99578.16;;;25.77;37.80
32642;BME280;19323;56.072;9.698;2023-04-01T03:00:49;99575.28;;;25.78;37.54
32642;BME280;19323;56.072;9.698;2023-04-01T03:03:14;99579.16;;;25.76;37.78
32642;BME280;19323;56.072;9.698;2023-04-01T03:05:39;99573.78;;;25.76;37.62
32642;BME280;19323;56.072;9.698;2023-04-01T03:08:05;99590.09;;;25.74;37.50
32642;BME280;19323;56.072;9.698;2023-04-01T03:10:31;99584.72;;;25.74;37.79
32642;BME280;19323;56.072;9.698;2023-04-01T03:12:56;99586.38;;;25.75;37.57
32642;BME280;19323;56.072;9.698;2023-04-01T03:15:21;99590.09;;;25.74;37.48
32642;BME280;19323;56.072;9.698;2023-04-01T03:17:46;99592.13;;;25.72;37.44
32642;BME280;19323;56.072;9.698;2023-04-01T03:20:12;99583.03;;;25.73;37.59
32642;BME280;19323;56.072;9.698;2023-04-01T03:22:37;99592.94;;;25.73;37.80
32642;BME280;19323;56.072;9.698;2023-04-01T03:25:03;99590.25;;;25.73;37.40
32642;BME280;19323;56.072;9.698;2023-04-01T03:27:28;99592.13;;;25.72;37.40
32642;BME280;19323;56.072;9.698;2023-04-01T03:29:54;99601.81;;;25.73;37.56
32642;BME280;19323;56.072;9.698;2023-04-01T03:32:19;99602.66;;;25.74;37.41
32642;BME280;19323;56.072;9.698;2023-04-01T03:34:44;99598.31;;;25.73;37.52
32642;BME280;19323;56.072;9.698;2023-04-01T03:37:10;99602.03;;;25.72;37.68
32642;BME280;19323;56.072;9.698;2023-04-01T03:39:35;99609.03;;;25.73;37.63
32642;BME280;19323;56.072;9.698;2023-04-01T03:42:00;99608.38;;;25.70;37.48
32642;BME280;19323;56.072;9.698;2023-04-01T03:44:26;99613.09;;;25.68;37.38
32642;BME280;19323;56.072;9.698;2023-04-01T03:46:51;99618.47;;;25.68;37.54
32642;BME280;19323;56.072;9.698;2023-04-01T03:49:16;99623.84;;;25.68;37.73
32642;BME280;19323;56.072;9.698;2023-04-01T03:51:41;99631.06;;;25.68;37.64
32642;BME280;19323;56.072;9.698;2023-04-01T03:54:07;99622.19;;;25.67;37.47
32642;BME280;19323;56.072;9.698;2023-04-01T03:56:32;99627.53;;;25.67;37.55
32642;BME280;19323;56.072;9.698;2023-04-01T03:58:57;99638.28;;;25.67;37.66
32642;BME280;19323;56.072;9.698;2023-04-01T04:01:23;99635.78;;;25.66;37.50
32642;BME280;19323;56.072;9.698;2023-04-01T04:03:49;99642.59;;;25.68;37.50
32642;BME280;19323;56.072;9.698;2023-04-01T04:06:15;99642.59;;;25.68;37.27
32642;BME280;19323;56.072;9.698;2023-04-01T04:08:40;99645.28;;;25.68;37.58
32642;BME280;19323;56.072;9.698;2023-04-01T04:11:05;99650.66;;;25.68;37.57
32642;BME280;19323;56.072;9.698;2023-04-01T04:13:30;99650.81;;;25.67;37.22
32642;BME280;19323;56.072;9.698;2023-04-01T04:15:56;99651.88;;;25.66;37.27
32642;BME280;19323;56.072;9.698;2023-04-01T04:18:21;99663.41;;;25.66;37.16
32642;BME280;19323;56.072;9.698;2023-04-01T04:20:46;99661.75;;;25.65;37.32
32642;BME280;19323;56.072;9.698;2023-04-01T04:23:13;99660.09;;;25.64;37.19
32642;BME280;19323;56.072;9.698;2023-04-01T04:25:38;99662.75;;;25.64;37.32
32642;BME280;19323;56.072;9.698;2023-04-01T04:28:03;99662.97;;;25.63;37.44
32642;BME280;19323;56.072;9.698;2023-04-01T04:30:29;99667.47;;;25.62;37.10
32642;BME280;19323;56.072;9.698;2023-04-01T04:32:54;99668.50;;;25.61;37.07
32642;BME280;19323;56.072;9.698;2023-04-01T04:35:19;99665.00;;;25.61;37.23
32642;BME280;19323;56.072;9.698;2023-04-01T04:37:44;99681.91;;;25.61;37.00
32642;BME280;19323;56.072;9.698;2023-04-01T04:40:09;99685.59;;;25.60;37.24
32642;BME280;19323;56.072;9.698;2023-04-01T04:42:34;99682.09;;;25.60;37.09
32642;BME280;19323;56.072;9.698;2023-04-01T04:45:00;99692.00;;;25.59;36.92
32642;BME280;19323;56.072;9.698;2023-04-01T04:47:25;99695.50;;;25.60;36.96
32642;BME280;19323;56.072;9.698;2023-04-01T04:49:50;99707.06;;;25.60;36.83
32642;BME280;19323;56.072;9.698;2023-04-01T04:52:15;99715.31;;;25.59;36.83
32642;BME280;19323;56.072;9.698;2023-04-01T04:54:40;99715.47;;;25.57;36.91
32642;BME280;19323;56.072;9.698;2023-04-01T04:57:05;99716.50;;;25.56;36.70
32642;BME280;19323;56.072;9.698;2023-04-01T04:59:31;99721.00;;;25.56;36.72
32642;BME280;19323;56.072;9.698;2023-04-01T05:01:56;99714.00;;;25.55;36.86
32642;BME280;19323;56.072;9.698;2023-04-01T05:04:21;99722.22;;;25.53;36.80
32642;BME280;19323;56.072;9.698;2023-04-01T05:06:47;99721.22;;;25.54;36.55
32642;BME280;19323;56.072;9.698;2023-04-01T05:09:12;99724.25;;;25.51;36.60
32642;BME280;19323;56.072;9.698;2023-04-01T05:11:37;99727.97;;;25.50;36.49
32642;BME280;19323;56.072;9.698;2023-04-01T05:14:02;99730.00;;;25.48;36.83
32642;BME280;19323;56.072;9.698;2023-04-01T05:16:27;99734.53;;;25.47;36.66
32642;BME280;19323;56.072;9.698;2023-04-01T05:18:52;99730.16;;;25.46;36.70
32642;BME280;19323;56.072;9.698;2023-04-01T05:21:18;99744.38;;;25.47;36.81
32642;BME280;19323;56.072;9.698;2023-04-01T05:23:43;99741.72;;;25.47;36.61
32642;BME280;19323;56.072;9.698;2023-04-01T05:26:09;99749.75;;;25.47;36.73
32642;BME280;19323;56.072;9.698;2023-04-01T05:28:35;99746.41;;;25.45;36.62
32642;BME280;19323;56.072;9.698;2023-04-01T05:31:01;99759.16;;;25.43;36.72
32642;BME280;19323;56.072;9.698;2023-04-01T05:33:27;99768.25;;;25.42;36.73
32642;BME280;19323;56.072;9.698;2023-04-01T05:35:53;99771.31;;;25.39;36.59
32642;BME280;19323;56.072;9.698;2023-04-01T05:38:18;99778.47;;;25.38;36.81
32642;BME280;19323;56.072;9.698;2023-04-01T05:40:43;99785.53;;;25.39;36.71
32642;BME280;19323;56.072;9.698;2023-04-01T05:43:08;99783.69;;;25.40;36.85
32642;BME280;19323;56.072;9.698;2023-04-01T05:45:33;99790.06;;;25.39;36.73
32642;BME280;19323;56.072;9.698;2023-04-01T05:47:59;99790.06;;;25.39;36.53
32642;BME280;19323;56.072;9.698;2023-04-01T05:50:24;99786.53;;;25.38;36.76
32642;BME280;19323;56.072;9.698;2023-04-01T05:52:49;99784.06;;;25.37;36.78
32642;BME280;19323;56.072;9.698;2023-04-01T05:55:14;99799.09;;;25.38;36.52
32642;BME280;19323;56.072;9.698;2023-04-01T05:57:40;99803.81;;;25.36;36.67
32642;BME280;19323;56.072;9.698;2023-04-01T06:00:05;99801.94;;;25.36;36.67
32642;BME280;19323;56.072;9.698;2023-04-01T06:02:30;99808.19;;;25.37;36.56
32642;BME280;19323;56.072;9.698;2023-04-01T06:05:03;99810.84;;;25.37;36.62
32642;BME280;19323;56.072;9.698;2023-04-01T06:07:36;99811.19;;;25.34;36.65
32642;BME280;19323;56.072;9.698;2023-04-01T06:10:01;99814.06;;;25.32;36.81
32642;BME280;19323;56.072;9.698;2023-04-01T06:12:34;99818.78;;;25.30;37.04
32642;BME280;19323;56.072;9.698;2023-04-01T06:15:13;99827.81;;;25.29;36.93
32642;BME280;19323;56.072;9.698;2023-04-01T06:17:43;99826.16;;;25.28;36.86
32642;BME280;19323;56.072;9.698;2023-04-01T06:20:26;99831.53;;;25.28;37.37
32642;BME280;19323;56.072;9.698;2023-04-01T06:36:24;99854.66;;;25.21;37.76
32642;BME280;19323;56.072;9.698;2023-04-01T06:39:12;99861.88;;;25.20;37.91
32642;BME280;19323;56.072;9.698;2023-04-01T06:41:52;99865.59;;;25.19;37.79
32642;BME280;19323;56.072;9.698;2023-04-01T06:44:43;99876.31;;;25.19;37.96
32642;BME280;19323;56.072;9.698;2023-04-01T06:47:18;99873.63;;;25.19;38.11
32642;BME280;19323;56.072;9.698;2023-04-01T06:54:38;99885.19;;;25.20;38.33
32642;BME280;19323;56.072;9.698;2023-04-01T06:57:16;99892.38;;;25.19;38.29
32642;BME280;19323;56.072;9.698;2023-04-01T06:59:45;99895.91;;;25.20;38.55
32642;BME280;19323;56.072;9.698;2023-04-01T07:02:16;99897.56;;;25.21;38.24
32642;BME280;19323;56.072;9.698;2023-04-01T07:04:46;99904.75;;;25.20;38.56
32642;BME280;19323;56.072;9.698;2023-04-01T07:09:40;99909.28;;;25.20;38.56
32642;BME280;19323;56.072;9.698;2023-04-01T07:12:12;99910.25;;;25.19;38.67
32642;BME280;19323;56.072;9.698;2023-04-01T07:14:40;99911.28;;;25.18;38.71
32642;BME280;19323;56.072;9.698;2023-04-01T07:19:36;99918.50;;;25.17;38.80
32642;BME280;19323;56.072;9.698;2023-04-01T07:22:23;99920.34;;;25.17;38.51
32642;BME280;19323;56.072;9.698;2023-04-01T07:24:51;99922.53;;;25.13;38.64
32642;BME280;19323;56.072;9.698;2023-04-01T07:27:17;99925.38;;;25.12;38.37
32642;BME280;19323;56.072;9.698;2023-04-01T07:29:42;99936.25;;;25.10;38.44
32642;BME280;19323;56.072;9.698;2023-04-01T07:35:07;99936.25;;;25.10;38.59
32642;BME280;19323;56.072;9.698;2023-04-01T07:50:32;99968.41;;;25.10;38.39
32642;BME280;19323;56.072;9.698;2023-04-01T07:55:33;99973.63;;;25.12;37.97
32642;BME280;19323;56.072;9.698;2023-04-01T07:58:24;99985.53;;;25.09;38.21
32642;BME280;19323;56.072;9.698;2023-04-01T08:00:48;99979.34;;;25.08;38.10
32642;BME280;19323;56.072;9.698;2023-04-01T08:05:50;99992.06;;;25.06;37.97
32642;BME280;19323;56.072;9.698;2023-04-01T08:13:53;100009.50;;;25.02;38.49
32642;BME280;19323;56.072;9.698;2023-04-01T08:21:43;100010.03;;;24.98;38.71
32642;BME280;19323;56.072;9.698;2023-04-01T08:26:44;100010.19;;;24.96;38.51
32642;BME280;19323;56.072;9.698;2023-04-01T08:29:18;100020.91;;;24.96;38.59
32642;BME280;19323;56.072;9.698;2023-04-01T08:31:56;100027.09;;;24.97;38.54
32642;BME280;19323;56.072;9.698;2023-04-01T08:34:24;100015.69;;;24.95;38.70
32642;BME280;19323;56.072;9.698;2023-04-01T08:36:52;99997.69;;;24.80;38.77
32642;BME280;19323;56.072;9.698;2023-04-01T08:39:29;100024.75;;;24.94;38.85
32642;BME280;19323;56.072;9.698;2023-04-01T08:42:15;100027.28;;;24.95;38.72
32642;BME280;19323;56.072;9.698;2023-04-01T08:52:37;100039.47;;;25.06;38.47
32642;BME280;19323;56.072;9.698;2023-04-01T08:55:19;100053.53;;;25.08;38.29
32642;BME280;19323;56.072;9.698;2023-04-01T09:00:15;100059.34;;;25.12;38.17
32642;BME280;19323;56.072;9.698;2023-04-01T09:05:18;100062.19;;;25.18;37.87
32642;BME280;19323;56.072;9.698;2023-04-01T09:10:28;100059.88;;;25.23;37.65
32642;BME280;19323;56.072;9.698;2023-04-01T09:25:51;100078.91;;;25.37;37.41
32642;BME280;19323;56.072;9.698;2023-04-01T09:30:55;100093.97;;;25.38;37.25
32642;BME280;19323;56.072;9.698;2023-04-01T09:41:31;100107.06;;;25.41;37.04
32642;BME280;19323;56.072;9.698;2023-04-01T09:46:37;100114.06;;;25.42;37.12
32642;BME280;19323;56.072;9.698;2023-04-01T10:04:15;100129.94;;;25.52;36.92
32642;BME280;19323;56.072;9.698;2023-04-01T10:06:57;100123.59;;;25.53;36.78
32642;BME280;19323;56.072;9.698;2023-04-01T10:14:58;100136.47;;;25.57;36.70
32642;BME280;19323;56.072;9.698;2023-04-01T10:22:54;100161.09;;;25.61;36.62
32642;BME280;19323;56.072;9.698;2023-04-01T10:41:15;100165.25;;;25.72;36.75
32642;BME280;19323;56.072;9.698;2023-04-01T10:44:04;100156.19;;;25.73;36.58
32642;BME280;19323;56.072;9.698;2023-04-01T10:46:43;100162.22;;;25.75;36.60
32642;BME280;19323;56.072;9.698;2023-04-01T10:49:24;100170.91;;;25.77;36.70
32642;BME280;19323;56.072;9.698;2023-04-01T10:59:28;100171.22;;;25.82;36.31
32642;BME280;19323;56.072;9.698;2023-04-01T11:02:01;100174.75;;;25.82;36.16
32642;BME280;19323;56.072;9.698;2023-04-01T11:04:43;100174.56;;;25.84;36.46
32642;BME280;19323;56.072;9.698;2023-04-01T11:07:31;100186.13;;;25.84;36.47
32642;BME280;19323;56.072;9.698;2023-04-01T11:13:00;100177.09;;;25.85;36.32
32642;BME280;19323;56.072;9.698;2023-04-01T11:15:48;100180.44;;;25.87;36.45
32642;BME280;19323;56.072;9.698;2023-04-01T11:24:00;100196.03;;;25.92;36.56
32642;BME280;19323;56.072;9.698;2023-04-01T11:31:47;100193.84;;;25.96;36.50
32642;BME280;19323;56.072;9.698;2023-04-01T11:42:03;100215.44;;;26.02;36.45
32642;BME280;19323;56.072;9.698;2023-04-01T11:44:33;100229.53;;;26.04;36.34
32642;BME280;19323;56.072;9.698;2023-04-01T11:49:41;100221.13;;;26.07;36.56
32642;BME280;19323;56.072;9.698;2023-04-01T12:05:36;100244.22;;;26.17;36.46
32642;BME280;19323;56.072;9.698;2023-04-01T12:08:09;100233.31;;;26.18;36.51
32642;BME280;19323;56.072;9.698;2023-04-01T12:15:33;100243.53;;;26.23;36.80
32642;BME280;19323;56.072;9.698;2023-04-01T12:18:20;100246.03;;;26.24;36.49
32642;BME280;19323;56.072;9.698;2023-04-01T12:23:46;100248.53;;;26.26;36.33
32642;BME280;19323;56.072;9.698;2023-04-01T12:29:14;100259.09;;;26.27;36.46
32642;BME280;19323;56.072;9.698;2023-04-01T12:39:31;100271.00;;;26.33;36.83
32642;BME280;19323;56.072;9.698;2023-04-01T12:50:16;100288.44;;;26.37;36.07
32642;BME280;19323;56.072;9.698;2023-04-01T12:52:58;100284.72;;;26.38;36.00
32642;BME280;19323;56.072;9.698;2023-04-01T12:55:41;100292.13;;;26.36;36.47
32642;BME280;19323;56.072;9.698;2023-04-01T13:01:09;100312.25;;;26.40;36.49
32642;BME280;19323;56.072;9.698;2023-04-01T13:03:44;100309.56;;;26.40;36.56
32642;BME280;19323;56.072;9.698;2023-04-01T13:06:19;100303.00;;;26.43;36.35
32642;BME280;19323;56.072;9.698;2023-04-01T13:13:56;100313.88;;;26.49;36.62
32642;BME280;19323;56.072;9.698;2023-04-01T13:18:58;100323.09;;;26.55;36.68
32642;BME280;19323;56.072;9.698;2023-04-01T13:21:33;100322.94;;;26.57;36.59
32642;BME280;19323;56.072;9.698;2023-04-01T13:24:09;100326.25;;;26.59;36.75
32642;BME280;19323;56.072;9.698;2023-04-01T13:29:31;100330.28;;;26.63;36.75
32642;BME280;19323;56.072;9.698;2023-04-01T13:35:02;100337.34;;;26.64;36.71
32642;BME280;19323;56.072;9.698;2023-04-01T13:37:34;100328.44;;;26.63;36.47
32642;BME280;19323;56.072;9.698;2023-04-01T13:40:14;100334.66;;;26.64;36.57
32642;BME280;19323;56.072;9.698;2023-04-01T13:42:45;100332.63;;;26.66;36.80
32642;BME280;19323;56.072;9.698;2023-04-01T13:45:21;100341.50;;;26.66;36.42
32642;BME280;19323;56.072;9.698;2023-04-01T13:50:34;100342.84;;;26.70;36.52
32642;BME280;19323;56.072;9.698;2023-04-01T13:53:16;100348.69;;;26.74;36.50
32642;BME280;19323;56.072;9.698;2023-04-01T14:03:27;100355.88;;;26.82;35.97
32642;BME280;19323;56.072;9.698;2023-04-01T14:11:16;100376.31;;;26.91;35.18
32642;BME280;19323;56.072;9.698;2023-04-01T14:13:52;100384.03;;;26.94;35.03
32642;BME280;19323;56.072;9.698;2023-04-01T14:29:02;100396.84;;;27.07;34.38
32642;BME280;19323;56.072;9.698;2023-04-01T14:47:38;100423.03;;;27.21;33.99
32642;BME280;19323;56.072;9.698;2023-04-01T14:52:33;100433.25;;;27.26;33.48
32642;BME280;19323;56.072;9.698;2023-04-01T14:54:59;100431.22;;;27.28;33.45
32642;BME280;19323;56.072;9.698;2023-04-01T14:57:27;100430.84;;;27.31;32.94
32642;BME280;19323;56.072;9.698;2023-04-01T15:05:15;100435.34;;;27.39;32.27
32642;BME280;19323;56.072;9.698;2023-04-01T15:07:59;100445.72;;;27.42;31.75
32642;BME280;19323;56.072;9.698;2023-04-01T15:12:54;100455.50;;;27.43;31.54
32642;BME280;19323;56.072;9.698;2023-04-01T15:15:27;100458.19;;;27.43;31.29
32642;BME280;19323;56.072;9.698;2023-04-01T15:22:58;100460.16;;;27.49;31.09
32642;BME280;19323;56.072;9.698;2023-04-01T15:33:36;100482.63;;;27.56;31.44
32642;BME280;19323;56.072;9.698;2023-04-01T15:38:49;100486.66;;;27.60;31.38
32642;BME280;19323;56.072;9.698;2023-04-01T15:41:24;100485.63;;;27.61;31.45
32642;BME280;19323;56.072;9.698;2023-04-01T15:43:52;100487.31;;;27.62;31.20
32642;BME280;19323;56.072;9.698;2023-04-01T15:48:55;100500.38;;;27.65;31.11
32642;BME280;19323;56.072;9.698;2023-04-01T15:56:29;100500.72;;;27.70;31.83
32642;BME280;19323;56.072;9.698;2023-04-01T15:59:13;100511.94;;;27.74;32.45
32642;BME280;19323;56.072;9.698;2023-04-01T16:01:44;100507.88;;;27.78;32.99
32642;BME280;19323;56.072;9.698;2023-04-01T16:04:31;100520.31;;;27.79;33.07
32642;BME280;19323;56.072;9.698;2023-04-01T16:07:17;100520.78;;;27.83;33.44
32642;BME280;19323;56.072;9.698;2023-04-01T16:09:55;100526.50;;;27.88;33.30
32642;BME280;19323;56.072;9.698;2023-04-01T16:20:02;100545.94;;;27.98;33.97
32642;BME280;19323;56.072;9.698;2023-04-01T16:22:39;100551.97;;;28.00;33.81
32642;BME280;19323;56.072;9.698;2023-04-01T16:28:53;100553.28;;;28.04;33.81
32642;BME280;19323;56.072;9.698;2023-04-01T16:35:50;100569.72;;;28.09;33.53
32642;BME280;19323;56.072;9.698;2023-04-01T16:38:24;100579.50;;;28.10;33.92
32642;BME280;19323;56.072;9.698;2023-04-01T16:41:00;100583.84;;;28.11;33.81
32642;BME280;19323;56.072;9.698;2023-04-01T16:43:40;100591.75;;;28.13;33.83
32642;BME280;19323;56.072;9.698;2023-04-01T16:51:12;100599.84;;;28.13;33.65
32642;BME280;19323;56.072;9.698;2023-04-01T16:53:45;100601.22;;;28.09;34.06
32642;BME280;19323;56.072;9.698;2023-04-01T16:56:16;100602.25;;;28.08;33.61
32642;BME280;19323;56.072;9.698;2023-04-01T17:01:24;100618.75;;;28.05;33.73
32642;BME280;19323;56.072;9.698;2023-04-01T17:03:52;100615.38;;;28.03;33.96
32642;BME280;19323;56.072;9.698;2023-04-01T17:08:55;100628.38;;;27.99;33.95
32642;BME280;19323;56.072;9.698;2023-04-01T17:21:54;100651.81;;;27.82;33.99
32642;BME280;19323;56.072;9.698;2023-04-01T17:29:46;100655.38;;;27.74;34.14
32642;BME280;19323;56.072;9.698;2023-04-01T17:32:35;100661.13;;;27.71;34.10
32642;BME280;19323;56.072;9.698;2023-04-01T17:35:11;100666.88;;;27.68;34.36
32642;BME280;19323;56.072;9.698;2023-04-01T17:37:45;100668.91;;;27.66;34.71
32642;BME280;19323;56.072;9.698;2023-04-01T17:40:21;100677.31;;;27.63;34.39
32642;BME280;19323;56.072;9.698;2023-04-01T17:53:35;100689.81;;;27.48;35.11
32642;BME280;19323;56.072;9.698;2023-04-01T17:56:22;100702.59;;;27.46;35.38
32642;BME280;19323;56.072;9.698;2023-04-01T17:59:01;100714.53;;;27.43;35.32
32642;BME280;19323;56.072;9.698;2023-04-01T18:04:23;100717.75;;;27.39;35.22
32642;BME280;19323;56.072;9.698;2023-04-01T18:11:59;100736.94;;;27.36;35.17
32642;BME280;19323;56.072;9.698;2023-04-01T18:17:01;100744.31;;;27.33;34.95
32642;BME280;19323;56.072;9.698;2023-04-01T18:19:35;100755.25;;;27.32;35.16
32642;BME280;19323;56.072;9.698;2023-04-01T18:24:33;100760.97;;;27.29;35.46
32642;BME280;19323;56.072;9.698;2023-04-01T18:32:24;100786.34;;;27.26;35.03
32642;BME280;19323;56.072;9.698;2023-04-01T18:37:14;100795.59;;;27.24;35.03
32642;BME280;19323;56.072;9.698;2023-04-01T18:39:42;100796.59;;;27.23;35.40
32642;BME280;19323;56.072;9.698;2023-04-01T18:44:56;100810.34;;;27.20;35.44
32642;BME280;19323;56.072;9.698;2023-04-01T18:47:27;100809.50;;;27.19;35.01
32642;BME280;19323;56.072;9.698;2023-04-01T18:50:02;100814.22;;;27.17;34.99
32642;BME280;19323;56.072;9.698;2023-04-01T18:52:33;100818.75;;;27.17;35.39
32642;BME280;19323;56.072;9.698;2023-04-01T18:57:38;100828.00;;;27.14;34.95
32642;BME280;19323;56.072;9.698;2023-04-01T19:00:08;100833.19;;;27.16;35.38
32642;BME280;19323;56.072;9.698;2023-04-01T19:02:43;100835.22;;;27.13;34.96
32642;BME280;19323;56.072;9.698;2023-04-01T19:07:43;100842.63;;;27.11;35.33
32642;BME280;19323;56.072;9.698;2023-04-01T19:12:58;100848.16;;;27.10;35.04
32642;BME280;19323;56.072;9.698;2023-04-01T19:18:09;100853.69;;;27.08;35.27
32642;BME280;19323;56.072;9.698;2023-04-01T19:20:42;100859.22;;;27.07;35.15
32642;BME280;19323;56.072;9.698;2023-04-01T19:23:17;100857.56;;;27.06;35.47
32642;BME280;19323;56.072;9.698;2023-04-01T19:25:55;100871.16;;;27.04;35.13
32642;BME280;19323;56.072;9.698;2023-04-01T19:30:51;100877.56;;;27.03;35.38
32642;BME280;19323;56.072;9.698;2023-04-01T19:35:53;100886.81;;;27.01;35.34
32642;BME280;19323;56.072;9.698;2023-04-01T19:43:22;100896.88;;;26.99;35.50
32642;BME280;19323;56.072;9.698;2023-04-01T19:46:05;100904.94;;;26.99;35.57
32642;BME280;19323;56.072;9.698;2023-04-01T19:51:13;100916.88;;;26.96;35.21
32642;BME280;19323;56.072;9.698;2023-04-01T20:01:09;100937.16;;;26.90;35.65
32642;BME280;19323;56.072;9.698;2023-04-01T20:03:45;100931.94;;;26.89;35.74
32642;BME280;19323;56.072;9.698;2023-04-01T20:06:15;100947.22;;;26.88;35.61
32642;BME280;19323;56.072;9.698;2023-04-01T20:08:49;100950.94;;;26.87;35.47
32642;BME280;19323;56.072;9.698;2023-04-01T20:19:10;100968.69;;;26.80;35.86
32642;BME280;19323;56.072;9.698;2023-04-01T20:21:40;100965.19;;;26.80;35.42
32642;BME280;19323;56.072;9.698;2023-04-01T20:26:33;100974.41;;;26.77;35.29
32642;BME280;19323;56.072;9.698;2023-04-01T20:44:31;101005.25;;;26.65;35.43
32642;BME280;19323;56.072;9.698;2023-04-01T20:49:52;101016.47;;;26.60;35.83